aviador You're here:

KMAW Decoded Metar

in
Report Time2018-02-22 06:55:00
UTC Time2018-02-22 06:38:53
Flight Rules ifr IFR
Wind020° at 14 kt
W.Decomp.*RWY 36: 13.2 kt HW 4.8 kt RCW
RWY 32: 7.0 kt HW 12.1 kt RCW
W.Rank020° ranks 6
Current wind is above 020° avg. (7.5)
Visibility9999 m
Phenomena:Rain
Clouds:Overcast 007 Hf
Expected CloudBase > 400 ft AGL from Temp-Dew spread
Ceiling700 ft
Temp03°C
Dew Point02°C (93% RH)
AAT-3.7°C
QNH1027 hPa
Raw Report
KMAW 220655Z AUTO 02014KT 7SM RA OVC007 03/02 A3034 RMK AO2
P0011=

Extra information for KMAW:More info

Social comments